sensor_id;sensor_type;location;lat;lon;timestamp;pressure;altitude;pressure_sealevel;temperature;humidity
24486;BME280;13449;49.374;8.584;2022-11-15T00:00:57;100293.16;;;9.88;100.00
24486;BME280;13449;49.374;8.584;2022-11-15T00:03:27;100287.41;;;9.83;100.00
24486;BME280;13449;49.374;8.584;2022-11-15T00:06:02;100281.34;;;9.95;100.00
24486;BME280;13449;49.374;8.584;2022-11-15T00:08:32;100278.72;;;10.02;100.00
24486;BME280;13449;49.374;8.584;2022-11-15T00:11:01;100283.03;;;10.11;100.00
24486;BME280;13449;49.374;8.584;2022-11-15T00:13:29;100277.38;;;10.12;100.00
24486;BME280;13449;49.374;8.584;2022-11-15T00:15:57;100283.84;;;10.20;100.00
24486;BME280;13449;49.374;8.584;2022-11-15T00:18:24;100289.34;;;10.11;100.00
24486;BME280;13449;49.374;8.584;2022-11-15T00:20:51;100279.28;;;10.12;100.00
24486;BME280;13449;49.374;8.584;2022-11-15T00:23:17;100280.88;;;10.06;100.00
24486;BME280;13449;49.374;8.584;2022-11-15T00:25:46;100287.81;;;10.09;100.00
24486;BME280;13449;49.374;8.584;2022-11-15T00:28:15;100278.94;;;10.15;100.00
24486;BME280;13449;49.374;8.584;2022-11-15T00:30:44;100278.38;;;10.34;99.54
24486;BME280;13449;49.374;8.584;2022-11-15T00:33:13;100280.03;;;10.35;98.84
24486;BME280;13449;49.374;8.584;2022-11-15T00:35:40;100272.81;;;10.28;100.00
24486;BME280;13449;49.374;8.584;2022-11-15T00:38:06;100272.63;;;10.29;100.00
24486;BME280;13449;49.374;8.584;2022-11-15T00:40:33;100275.34;;;10.29;99.54
24486;BME280;13449;49.374;8.584;2022-11-15T00:42:59;100273.78;;;10.35;98.80
24486;BME280;13449;49.374;8.584;2022-11-15T00:45:26;100267.09;;;10.37;98.33
24486;BME280;13449;49.374;8.584;2022-11-15T00:47:52;100264.16;;;10.39;98.33
24486;BME280;13449;49.374;8.584;2022-11-15T00:50:19;100263.03;;;10.33;98.18
24486;BME280;13449;49.374;8.584;2022-11-15T00:52:48;100259.28;;;10.34;97.98
24486;BME280;13449;49.374;8.584;2022-11-15T00:55:16;100253.16;;;10.32;98.08
24486;BME280;13449;49.374;8.584;2022-11-15T00:57:46;100257.97;;;10.30;98.22
24486;BME280;13449;49.374;8.584;2022-11-15T01:00:13;100259.78;;;10.23;98.92
24486;BME280;13449;49.374;8.584;2022-11-15T01:02:39;100257.78;;;10.17;99.07
24486;BME280;13449;49.374;8.584;2022-11-15T01:05:06;100259.56;;;10.10;99.97
24486;BME280;13449;49.374;8.584;2022-11-15T01:07:33;100254.78;;;10.12;100.00
24486;BME280;13449;49.374;8.584;2022-11-15T01:09:59;100252.63;;;10.07;98.97
24486;BME280;13449;49.374;8.584;2022-11-15T01:12:26;100250.63;;;10.01;99.73
24486;BME280;13449;49.374;8.584;2022-11-15T01:14:53;100248.94;;;10.00;100.00
24486;BME280;13449;49.374;8.584;2022-11-15T01:17:22;100251.84;;;9.99;100.00
24486;BME280;13449;49.374;8.584;2022-11-15T01:19:48;100252.97;;;9.90;100.00
24486;BME280;13449;49.374;8.584;2022-11-15T01:22:15;100253.09;;;9.96;100.00
24486;BME280;13449;49.374;8.584;2022-11-15T01:24:41;100249.13;;;9.84;100.00
24486;BME280;13449;49.374;8.584;2022-11-15T01:27:08;100239.81;;;9.79;100.00
24486;BME280;13449;49.374;8.584;2022-11-15T01:29:35;100235.69;;;9.83;100.00
24486;BME280;13449;49.374;8.584;2022-11-15T01:32:02;100236.28;;;9.93;100.00
24486;BME280;13449;49.374;8.584;2022-11-15T01:34:30;100239.81;;;9.79;100.00
24486;BME280;13449;49.374;8.584;2022-11-15T01:36:57;100233.81;;;9.68;100.00
24486;BME280;13449;49.374;8.584;2022-11-15T01:39:24;100238.53;;;9.75;100.00
24486;BME280;13449;49.374;8.584;2022-11-15T01:41:51;100236.75;;;9.67;100.00
24486;BME280;13449;49.374;8.584;2022-11-15T01:47:28;100230.19;;;9.39;100.00
24486;BME280;13449;49.374;8.584;2022-11-15T01:52:29;100225.88;;;9.30;100.00
24486;BME280;13449;49.374;8.584;2022-11-15T01:55:02;100222.47;;;9.28;100.00
24486;BME280;13449;49.374;8.584;2022-11-15T01:57:31;100218.06;;;9.27;100.00
24486;BME280;13449;49.374;8.584;2022-11-15T01:59:58;100220.97;;;9.25;100.00
24486;BME280;13449;49.374;8.584;2022-11-15T02:02:26;100209.50;;;9.15;100.00
24486;BME280;13449;49.374;8.584;2022-11-15T02:04:56;100214.72;;;9.39;100.00
24486;BME280;13449;49.374;8.584;2022-11-15T02:07:22;100217.16;;;9.34;100.00
24486;BME280;13449;49.374;8.584;2022-11-15T02:09:51;100216.09;;;9.20;100.00
24486;BME280;13449;49.374;8.584;2022-11-15T02:12:21;100210.91;;;9.11;100.00
24486;BME280;13449;49.374;8.584;2022-11-15T02:14:52;100200.09;;;9.03;100.00
24486;BME280;13449;49.374;8.584;2022-11-15T02:20:26;100191.56;;;9.06;100.00
24486;BME280;13449;49.374;8.584;2022-11-15T02:28:51;100178.69;;;9.00;100.00
24486;BME280;13449;49.374;8.584;2022-11-15T02:31:31;100180.41;;;9.01;100.00
24486;BME280;13449;49.374;8.584;2022-11-15T02:36:52;100170.44;;;8.93;100.00
24486;BME280;13449;49.374;8.584;2022-11-15T02:42:04;100164.72;;;8.88;100.00
24486;BME280;13449;49.374;8.584;2022-11-15T02:44:56;100159.16;;;8.82;100.00
24486;BME280;13449;49.374;8.584;2022-11-15T02:47:27;100159.50;;;8.79;100.00
24486;BME280;13449;49.374;8.584;2022-11-15T02:50:01;100165.69;;;8.72;100.00
24486;BME280;13449;49.374;8.584;2022-11-15T02:52:30;100150.56;;;8.70;100.00
24486;BME280;13449;49.374;8.584;2022-11-15T02:54:59;100153.00;;;8.65;100.00
24486;BME280;13449;49.374;8.584;2022-11-15T03:00:23;100151.19;;;8.57;100.00
24486;BME280;13449;49.374;8.584;2022-11-15T03:05:44;100145.09;;;8.55;100.00
24486;BME280;13449;49.374;8.584;2022-11-15T03:11:03;100138.94;;;8.61;100.00
24486;BME280;13449;49.374;8.584;2022-11-15T03:13:36;100137.34;;;8.67;100.00
24486;BME280;13449;49.374;8.584;2022-11-15T03:16:08;100132.41;;;8.70;100.00
24486;BME280;13449;49.374;8.584;2022-11-15T03:18:39;100132.75;;;8.67;100.00
24486;BME280;13449;49.374;8.584;2022-11-15T03:21:08;100136.34;;;8.68;100.00
24486;BME280;13449;49.374;8.584;2022-11-15T03:23:39;100134.63;;;8.67;100.00
24486;BME280;13449;49.374;8.584;2022-11-15T03:26:11;100135.47;;;8.67;100.00
24486;BME280;13449;49.374;8.584;2022-11-15T03:28:52;100132.75;;;8.67;100.00
24486;BME280;13449;49.374;8.584;2022-11-15T03:31:21;100136.81;;;8.71;100.00
24486;BME280;13449;49.374;8.584;2022-11-15T03:34:22;100143.47;;;8.69;100.00
24486;BME280;13449;49.374;8.584;2022-11-15T03:36:53;100133.44;;;8.69;100.00
24486;BME280;13449;49.374;8.584;2022-11-15T03:39:21;100138.50;;;8.72;100.00
24486;BME280;13449;49.374;8.584;2022-11-15T03:41:52;100131.00;;;8.74;100.00
24486;BME280;13449;49.374;8.584;2022-11-15T03:44:58;100134.03;;;8.80;100.00
24486;BME280;13449;49.374;8.584;2022-11-15T03:50:15;100123.94;;;8.88;100.00
24486;BME280;13449;49.374;8.584;2022-11-15T03:52:46;100129.84;;;8.92;100.00
24486;BME280;13449;49.374;8.584;2022-11-15T03:55:18;100130.97;;;8.97;100.00
24486;BME280;13449;49.374;8.584;2022-11-15T03:57:46;100128.09;;;8.99;100.00
24486;BME280;13449;49.374;8.584;2022-11-15T04:00:14;100131.19;;;9.10;100.00
24486;BME280;13449;49.374;8.584;2022-11-15T04:02:40;100131.00;;;9.12;100.00
24486;BME280;13449;49.374;8.584;2022-11-15T04:05:07;100129.13;;;9.12;100.00
24486;BME280;13449;49.374;8.584;2022-11-15T04:07:34;100124.34;;;9.14;100.00
24486;BME280;13449;49.374;8.584;2022-11-15T04:10:00;100126.16;;;9.22;100.00
24486;BME280;13449;49.374;8.584;2022-11-15T04:12:35;100129.50;;;9.24;100.00
24486;BME280;13449;49.374;8.584;2022-11-15T04:15:15;100135.81;;;9.25;100.00
24486;BME280;13449;49.374;8.584;2022-11-15T04:17:53;100126.03;;;9.30;100.00
24486;BME280;13449;49.374;8.584;2022-11-15T04:20:28;100124.63;;;9.34;100.00
24486;BME280;13449;49.374;8.584;2022-11-15T04:23:21;100127.00;;;9.37;100.00
24486;BME280;13449;49.374;8.584;2022-11-15T04:26:18;100118.63;;;9.39;100.00
24486;BME280;13449;49.374;8.584;2022-11-15T04:28:45;100107.59;;;9.40;100.00
24486;BME280;13449;49.374;8.584;2022-11-15T04:31:30;100123.31;;;9.45;100.00
24486;BME280;13449;49.374;8.584;2022-11-15T04:34:00;100120.25;;;9.48;100.00
24486;BME280;13449;49.374;8.584;2022-11-15T04:36:27;100118.56;;;9.47;100.00
24486;BME280;13449;49.374;8.584;2022-11-15T04:39:12;100121.75;;;9.50;100.00
24486;BME280;13449;49.374;8.584;2022-11-15T04:41:38;100118.47;;;9.55;100.00
24486;BME280;13449;49.374;8.584;2022-11-15T04:44:05;100118.53;;;9.61;100.00
24486;BME280;13449;49.374;8.584;2022-11-15T04:46:32;100114.78;;;9.62;100.00
24486;BME280;13449;49.374;8.584;2022-11-15T04:48:58;100107.66;;;9.61;100.00
24486;BME280;13449;49.374;8.584;2022-11-15T04:51:25;100111.22;;;9.62;100.00
24486;BME280;13449;49.374;8.584;2022-11-15T04:53:52;100100.97;;;9.64;100.00
24486;BME280;13449;49.374;8.584;2022-11-15T04:56:21;100099.09;;;9.64;100.00
24486;BME280;13449;49.374;8.584;2022-11-15T04:58:50;100106.06;;;9.67;100.00
24486;BME280;13449;49.374;8.584;2022-11-15T05:01:17;100099.00;;;9.73;100.00
24486;BME280;13449;49.374;8.584;2022-11-15T05:03:44;100092.53;;;9.74;100.00
24486;BME280;13449;49.374;8.584;2022-11-15T05:06:29;100086.41;;;9.71;100.00
24486;BME280;13449;49.374;8.584;2022-11-15T05:09:01;100091.69;;;9.73;100.00
24486;BME280;13449;49.374;8.584;2022-11-15T05:11:30;100084.09;;;9.68;100.00
24486;BME280;13449;49.374;8.584;2022-11-15T05:13:56;100081.75;;;9.65;100.00
24486;BME280;13449;49.374;8.584;2022-11-15T05:16:23;100079.78;;;9.59;100.00
24486;BME280;13449;49.374;8.584;2022-11-15T05:18:53;100085.03;;;9.61;100.00
24486;BME280;13449;49.374;8.584;2022-11-15T05:21:22;100077.06;;;9.59;100.00
24486;BME280;13449;49.374;8.584;2022-11-15T05:23:49;100078.09;;;9.58;100.00
24486;BME280;13449;49.374;8.584;2022-11-15T05:26:17;100085.03;;;9.61;100.00
24486;BME280;13449;49.374;8.584;2022-11-15T05:28:44;100076.94;;;9.67;100.00
24486;BME280;13449;49.374;8.584;2022-11-15T05:31:13;100076.94;;;9.67;100.00
24486;BME280;13449;49.374;8.584;2022-11-15T05:33:41;100084.09;;;9.68;100.00
24486;BME280;13449;49.374;8.584;2022-11-15T05:36:16;100075.06;;;9.68;100.00
24486;BME280;13449;49.374;8.584;2022-11-15T05:38:45;100083.69;;;9.71;100.00
24486;BME280;13449;49.374;8.584;2022-11-15T05:41:13;100078.72;;;9.75;100.00
24486;BME280;13449;49.374;8.584;2022-11-15T05:43:42;100079.28;;;9.85;100.00
24486;BME280;13449;49.374;8.584;2022-11-15T05:46:09;100082.38;;;9.82;100.00
24486;BME280;13449;49.374;8.584;2022-11-15T05:48:37;100075.69;;;9.85;100.00
24486;BME280;13449;49.374;8.584;2022-11-15T05:51:06;100072.97;;;9.85;100.00
24486;BME280;13449;49.374;8.584;2022-11-15T05:53:35;100076.56;;;9.85;100.00
24486;BME280;13449;49.374;8.584;2022-11-15T05:56:03;100075.31;;;9.88;100.00
24486;BME280;13449;49.374;8.584;2022-11-15T05:58:32;100075.84;;;9.98;100.00
24486;BME280;13449;49.374;8.584;2022-11-15T06:01:00;100082.97;;;9.99;100.00
24486;BME280;13449;49.374;8.584;2022-11-15T06:03:26;100076.97;;;10.03;100.00
24486;BME280;13449;49.374;8.584;2022-11-15T06:05:53;100074.41;;;10.02;100.00
24486;BME280;13449;49.374;8.584;2022-11-15T06:08:19;100075.09;;;10.04;100.00
24486;BME280;13449;49.374;8.584;2022-11-15T06:10:46;100077.44;;;10.07;100.00
24486;BME280;13449;49.374;8.584;2022-11-15T06:13:12;100076.00;;;10.11;100.00
24486;BME280;13449;49.374;8.584;2022-11-15T06:15:38;100078.50;;;10.12;99.89
24486;BME280;13449;49.374;8.584;2022-11-15T06:18:05;100080.06;;;10.15;100.00
24486;BME280;13449;49.374;8.584;2022-11-15T06:20:31;100088.13;;;10.23;98.32
24486;BME280;13449;49.374;8.584;2022-11-15T06:23:01;100078.25;;;10.22;98.25
24486;BME280;13449;49.374;8.584;2022-11-15T06:25:29;100086.03;;;10.25;98.29
24486;BME280;13449;49.374;8.584;2022-11-15T06:27:57;100082.84;;;10.22;98.92
24486;BME280;13449;49.374;8.584;2022-11-15T06:30:27;100084.72;;;10.21;98.51
24486;BME280;13449;49.374;8.584;2022-11-15T06:33:04;100094.59;;;10.22;98.57
24486;BME280;13449;49.374;8.584;2022-11-15T06:35:36;100085.97;;;10.18;99.36
24486;BME280;13449;49.374;8.584;2022-11-15T06:38:08;100083.78;;;10.14;98.70
24486;BME280;13449;49.374;8.584;2022-11-15T06:40:35;100078.91;;;10.09;98.76
24486;BME280;13449;49.374;8.584;2022-11-15T06:43:02;100081.19;;;10.06;99.73
24486;BME280;13449;49.374;8.584;2022-11-15T06:45:32;100080.16;;;10.07;99.46
24486;BME280;13449;49.374;8.584;2022-11-15T06:47:58;100075.53;;;10.07;100.00
24486;BME280;13449;49.374;8.584;2022-11-15T06:50:24;100081.44;;;10.11;98.98
24486;BME280;13449;49.374;8.584;2022-11-15T06:52:51;100081.25;;;10.12;99.18
24486;BME280;13449;49.374;8.584;2022-11-15T06:55:17;100076.00;;;10.11;100.00
24486;BME280;13449;49.374;8.584;2022-11-15T06:57:50;100073.47;;;10.09;100.00
24486;BME280;13449;49.374;8.584;2022-11-15T07:00:21;100072.75;;;10.15;98.52
24486;BME280;13449;49.374;8.584;2022-11-15T07:02:47;100066.44;;;10.15;99.04
24486;BME280;13449;49.374;8.584;2022-11-15T07:05:19;100070.16;;;10.14;100.00
24486;BME280;13449;49.374;8.584;2022-11-15T07:07:51;100067.28;;;10.15;100.00
24486;BME280;13449;49.374;8.584;2022-11-15T07:10:18;100076.56;;;10.21;100.00
24486;BME280;13449;49.374;8.584;2022-11-15T07:12:48;100081.59;;;10.24;100.00
24486;BME280;13449;49.374;8.584;2022-11-15T07:15:16;100085.00;;;10.26;100.00
24486;BME280;13449;49.374;8.584;2022-11-15T07:17:42;100084.22;;;10.32;100.00
24486;BME280;13449;49.374;8.584;2022-11-15T07:20:12;100087.84;;;10.39;98.87
24486;BME280;13449;49.374;8.584;2022-11-15T07:22:43;100090.84;;;10.44;99.00
24486;BME280;13449;49.374;8.584;2022-11-15T07:25:11;100093.16;;;10.47;100.00
24486;BME280;13449;49.374;8.584;2022-11-15T07:27:40;100081.03;;;10.50;99.47
24486;BME280;13449;49.374;8.584;2022-11-15T07:30:07;100085.94;;;10.61;95.87
24486;BME280;13449;49.374;8.584;2022-11-15T07:32:34;100092.69;;;10.65;95.59
24486;BME280;13449;49.374;8.584;2022-11-15T07:35:00;100089.78;;;10.66;97.16
24486;BME280;13449;49.374;8.584;2022-11-15T07:37:27;100094.25;;;10.74;95.23
24486;BME280;13449;49.374;8.584;2022-11-15T07:39:55;100083.75;;;10.71;98.00
24486;BME280;13449;49.374;8.584;2022-11-15T07:42:24;100092.38;;;10.75;96.36
24486;BME280;13449;49.374;8.584;2022-11-15T07:45:09;100090.16;;;10.85;96.29
24486;BME280;13449;49.374;8.584;2022-11-15T07:47:36;100092.91;;;10.91;94.45
24486;BME280;13449;49.374;8.584;2022-11-15T07:50:04;100102.84;;;10.99;92.50
24486;BME280;13449;49.374;8.584;2022-11-15T07:52:31;100091.13;;;10.98;97.84
24486;BME280;13449;49.374;8.584;2022-11-15T07:54:57;100095.50;;;10.99;95.75
24486;BME280;13449;49.374;8.584;2022-11-15T07:57:24;100095.38;;;11.07;96.50
24486;BME280;13449;49.374;8.584;2022-11-15T07:59:50;100099.97;;;11.07;98.17
24486;BME280;13449;49.374;8.584;2022-11-15T08:02:17;100090.75;;;11.08;97.57
24486;BME280;13449;49.374;8.584;2022-11-15T08:04:44;100086.59;;;11.12;95.81
24486;BME280;13449;49.374;8.584;2022-11-15T08:07:13;100088.47;;;11.11;98.30
24486;BME280;13449;49.374;8.584;2022-11-15T08:09:39;100086.59;;;11.12;99.28
24486;BME280;13449;49.374;8.584;2022-11-15T08:12:06;100089.56;;;11.17;98.80
24486;BME280;13449;49.374;8.584;2022-11-15T08:14:33;100082.88;;;11.20;99.42
24486;BME280;13449;49.374;8.584;2022-11-15T08:16:59;100083.31;;;11.23;100.00
24486;BME280;13449;49.374;8.584;2022-11-15T08:19:25;100086.47;;;11.27;99.92
24486;BME280;13449;49.374;8.584;2022-11-15T08:21:52;100088.78;;;11.30;100.00
24486;BME280;13449;49.374;8.584;2022-11-15T08:24:19;100077.09;;;11.36;98.46
24486;BME280;13449;49.374;8.584;2022-11-15T08:26:46;100078.97;;;11.35;98.35
24486;BME280;13449;49.374;8.584;2022-11-15T08:29:13;100076.69;;;11.39;95.36
24486;BME280;13449;49.374;8.584;2022-11-15T08:31:39;100077.13;;;11.42;96.40
24486;BME280;13449;49.374;8.584;2022-11-15T08:34:06;100070.84;;;11.48;98.31
24486;BME280;13449;49.374;8.584;2022-11-15T08:36:32;100070.00;;;11.48;95.84
24486;BME280;13449;49.374;8.584;2022-11-15T08:39:11;100072.56;;;11.56;95.35
24486;BME280;13449;49.374;8.584;2022-11-15T08:41:39;100058.91;;;11.56;93.77
24486;BME280;13449;49.374;8.584;2022-11-15T08:44:05;100059.34;;;11.59;92.37
24486;BME280;13449;49.374;8.584;2022-11-15T08:46:34;100064.63;;;11.68;91.56
24486;BME280;13449;49.374;8.584;2022-11-15T08:49:03;100051.25;;;11.73;95.45
24486;BME280;13449;49.374;8.584;2022-11-15T08:51:29;100050.84;;;11.76;97.58
24486;BME280;13449;49.374;8.584;2022-11-15T08:53:55;100046.44;;;11.81;99.21
24486;BME280;13449;49.374;8.584;2022-11-15T08:56:22;100046.84;;;11.78;95.48
24486;BME280;13449;49.374;8.584;2022-11-15T08:58:51;100050.00;;;11.82;96.08
24486;BME280;13449;49.374;8.584;2022-11-15T09:01:19;100059.28;;;11.87;96.94
24486;BME280;13449;49.374;8.584;2022-11-15T09:03:46;100050.50;;;11.92;99.40
24486;BME280;13449;49.374;8.584;2022-11-15T09:06:13;100056.38;;;11.95;97.34
24486;BME280;13449;49.374;8.584;2022-11-15T09:08:44;100056.41;;;12.02;97.74
24486;BME280;13449;49.374;8.584;2022-11-15T09:11:17;100061.88;;;12.08;96.22
24486;BME280;13449;49.374;8.584;2022-11-15T09:13:48;100057.06;;;12.17;98.74
24486;BME280;13449;49.374;8.584;2022-11-15T09:16:18;100061.50;;;12.25;97.02
24486;BME280;13449;49.374;8.584;2022-11-15T09:18:44;100066.13;;;12.37;94.62
24486;BME280;13449;49.374;8.584;2022-11-15T09:21:11;100063.44;;;12.50;94.50
24486;BME280;13449;49.374;8.584;2022-11-15T09:23:38;100056.28;;;12.63;95.92
24486;BME280;13449;49.374;8.584;2022-11-15T09:26:07;100056.72;;;12.73;93.33
24486;BME280;13449;49.374;8.584;2022-11-15T09:28:34;100063.00;;;12.86;92.06
24486;BME280;13449;49.374;8.584;2022-11-15T09:31:05;100074.81;;;12.87;87.04
24486;BME280;13449;49.374;8.584;2022-11-15T09:33:32;100074.19;;;12.85;86.32
24486;BME280;13449;49.374;8.584;2022-11-15T09:36:17;100060.69;;;12.90;87.77
24486;BME280;13449;49.374;8.584;2022-11-15T09:38:45;100050.59;;;12.97;89.53
24486;BME280;13449;49.374;8.584;2022-11-15T09:43:54;100051.88;;;13.14;86.96
24486;BME280;13449;49.374;8.584;2022-11-15T09:49:15;100052.06;;;13.19;93.32
24486;BME280;13449;49.374;8.584;2022-11-15T09:51:48;100045.34;;;13.15;90.54
24486;BME280;13449;49.374;8.584;2022-11-15T09:54:31;100040.91;;;13.07;89.15
24486;BME280;13449;49.374;8.584;2022-11-15T09:57:32;100039.66;;;13.10;91.04
24486;BME280;13449;49.374;8.584;2022-11-15T10:05:26;100043.03;;;13.12;90.68
24486;BME280;13449;49.374;8.584;2022-11-15T10:11:03;100040.47;;;13.30;88.90
24486;BME280;13449;49.374;8.584;2022-11-15T10:13:44;100034.91;;;13.50;88.85
24486;BME280;13449;49.374;8.584;2022-11-15T10:16:48;100037.84;;;13.55;87.58
24486;BME280;13449;49.374;8.584;2022-11-15T10:19:45;100034.91;;;13.50;85.38
24486;BME280;13449;49.374;8.584;2022-11-15T10:22:28;100026.06;;;13.54;86.87
24486;BME280;13449;49.374;8.584;2022-11-15T10:27:51;100022.06;;;13.57;87.12
24486;BME280;13449;49.374;8.584;2022-11-15T10:30:23;100026.00;;;13.61;86.01
24486;BME280;13449;49.374;8.584;2022-11-15T10:32:50;100029.41;;;13.63;83.38
24486;BME280;13449;49.374;8.584;2022-11-15T10:35:34;100009.56;;;13.68;85.70
24486;BME280;13449;49.374;8.584;2022-11-15T10:38:06;100016.34;;;13.59;83.39
24486;BME280;13449;49.374;8.584;2022-11-15T10:40:34;100001.16;;;13.63;85.64
24486;BME280;13449;49.374;8.584;2022-11-15T10:43:17;100002.84;;;13.64;86.16
24486;BME280;13449;49.374;8.584;2022-11-15T10:45:45;100002.19;;;13.62;84.20
24486;BME280;13449;49.374;8.584;2022-11-15T10:50:44;100004.91;;;13.75;82.86
24486;BME280;13449;49.374;8.584;2022-11-15T10:53:42;99998.78;;;13.73;82.52
24486;BME280;13449;49.374;8.584;2022-11-15T10:56:14;99991.34;;;13.80;83.38
24486;BME280;13449;49.374;8.584;2022-11-15T10:58:54;99994.28;;;13.85;83.17
24486;BME280;13449;49.374;8.584;2022-11-15T11:01:23;99976.16;;;13.84;86.10
24486;BME280;13449;49.374;8.584;2022-11-15T11:03:59;99982.31;;;13.79;84.64
24486;BME280;13449;49.374;8.584;2022-11-15T11:06:29;99974.97;;;13.73;83.38
24486;BME280;13449;49.374;8.584;2022-11-15T11:09:02;99968.63;;;13.73;85.14
24486;BME280;13449;49.374;8.584;2022-11-15T11:11:49;99972.81;;;13.82;87.04
24486;BME280;13449;49.374;8.584;2022-11-15T11:14:22;99958.47;;;13.80;84.11
24486;BME280;13449;49.374;8.584;2022-11-15T11:16:52;99940.94;;;13.87;86.59
24486;BME280;13449;49.374;8.584;2022-11-15T11:19:37;99939.47;;;13.85;85.37
24486;BME280;13449;49.374;8.584;2022-11-15T11:22:16;99944.13;;;13.84;84.60
24486;BME280;13449;49.374;8.584;2022-11-15T11:24:52;99938.59;;;13.91;86.12
24486;BME280;13449;49.374;8.584;2022-11-15T11:33:55;99915.28;;;13.82;82.90
24486;BME280;13449;49.374;8.584;2022-11-15T11:41:50;99916.66;;;13.91;80.38
24486;BME280;13449;49.374;8.584;2022-11-15T11:47:21;99908.63;;;13.96;81.27
24486;BME280;13449;49.374;8.584;2022-11-15T11:49:51;99905.00;;;14.02;81.28
24486;BME280;13449;49.374;8.584;2022-11-15T11:57:38;99903.47;;;14.06;80.18
24486;BME280;13449;49.374;8.584;2022-11-15T12:02:47;99890.22;;;14.03;81.31
24486;BME280;13449;49.374;8.584;2022-11-15T12:05:25;99886.16;;;14.12;80.17
24486;BME280;13449;49.374;8.584;2022-11-15T12:07:59;99871.38;;;14.13;80.73
24486;BME280;13449;49.374;8.584;2022-11-15T12:10:32;99876.41;;;14.16;78.85
24486;BME280;13449;49.374;8.584;2022-11-15T12:13:08;99865.31;;;14.29;81.28
24486;BME280;13449;49.374;8.584;2022-11-15T12:18:20;99850.91;;;14.40;81.61
24486;BME280;13449;49.374;8.584;2022-11-15T12:21:19;99860.81;;;14.41;79.40
24486;BME280;13449;49.374;8.584;2022-11-15T12:23:59;99846.72;;;14.38;79.20
24486;BME280;13449;49.374;8.584;2022-11-15T12:26:46;99859.63;;;14.31;75.50
24486;BME280;13449;49.374;8.584;2022-11-15T12:29:27;99843.84;;;14.26;75.96
24486;BME280;13449;49.374;8.584;2022-11-15T12:31:58;99847.69;;;14.19;76.01
24486;BME280;13449;49.374;8.584;2022-11-15T12:34:43;99826.59;;;14.19;77.68
24486;BME280;13449;49.374;8.584;2022-11-15T12:58:49;99817.97;;;13.97;82.01
24486;BME280;13449;49.374;8.584;2022-11-15T13:04:15;99803.03;;;13.93;79.52
24486;BME280;13449;49.374;8.584;2022-11-15T13:07:07;99805.75;;;13.93;80.66
24486;BME280;13449;49.374;8.584;2022-11-15T13:17:33;99794.41;;;13.90;80.17
24486;BME280;13449;49.374;8.584;2022-11-15T13:20:02;99791.81;;;13.95;79.21
24486;BME280;13449;49.374;8.584;2022-11-15T13:30:59;99769.56;;;13.85;80.18
24486;BME280;13449;49.374;8.584;2022-11-15T13:33:35;99759.25;;;13.87;81.92
24486;BME280;13449;49.374;8.584;2022-11-15T13:36:15;99756.94;;;13.84;82.63
24486;BME280;13449;49.374;8.584;2022-11-15T13:38:43;99739.22;;;13.86;83.35
24486;BME280;13449;49.374;8.584;2022-11-15T13:41:17;99738.97;;;13.88;83.83
24486;BME280;13449;49.374;8.584;2022-11-15T13:43:47;99735.00;;;13.84;84.44
24486;BME280;13449;49.374;8.584;2022-11-15T13:48:58;99729.59;;;13.77;83.51
24486;BME280;13449;49.374;8.584;2022-11-15T13:57:09;99719.75;;;13.94;84.43
24486;BME280;13449;49.374;8.584;2022-11-15T13:59:51;99713.84;;;13.91;83.24
24486;BME280;13449;49.374;8.584;2022-11-15T14:02:30;99702.06;;;13.90;86.32
24486;BME280;13449;49.374;8.584;2022-11-15T14:05:14;99705.69;;;13.84;86.47
24486;BME280;13449;49.374;8.584;2022-11-15T14:08:13;99695.03;;;13.76;88.06
24486;BME280;13449;49.374;8.584;2022-11-15T14:10:47;99696.97;;;13.76;87.33
24486;BME280;13449;49.374;8.584;2022-11-15T14:13:28;99684.78;;;13.72;87.42
24486;BME280;13449;49.374;8.584;2022-11-15T14:16:12;99676.09;;;13.75;88.34
24486;BME280;13449;49.374;8.584;2022-11-15T14:18:53;99678.66;;;13.70;84.50
24486;BME280;13449;49.374;8.584;2022-11-15T14:21:20;99682.03;;;13.72;83.40
24486;BME280;13449;49.374;8.584;2022-11-15T14:23:46;99669.16;;;13.72;83.98
24486;BME280;13449;49.374;8.584;2022-11-15T14:26:30;99657.66;;;13.64;88.12
24486;BME280;13449;49.374;8.584;2022-11-15T14:29:28;99669.13;;;13.54;88.34
24486;BME280;13449;49.374;8.584;2022-11-15T14:32:12;99663.25;;;13.50;88.36
24486;BME280;13449;49.374;8.584;2022-11-15T14:34:39;99650.41;;;13.51;88.18
24486;BME280;13449;49.374;8.584;2022-11-15T14:37:18;99650.19;;;13.52;88.10
24486;BME280;13449;49.374;8.584;2022-11-15T14:39:45;99652.94;;;13.52;86.19
24486;BME280;13449;49.374;8.584;2022-11-15T14:42:11;99650.41;;;13.51;86.89
24486;BME280;13449;49.374;8.584;2022-11-15T14:44:38;99633.38;;;13.49;89.23
24486;BME280;13449;49.374;8.584;2022-11-15T14:47:11;99648.50;;;13.51;85.29
24486;BME280;13449;49.374;8.584;2022-11-15T14:49:40;99633.75;;;13.52;84.07
24486;BME280;13449;49.374;8.584;2022-11-15T14:52:20;99622.16;;;13.50;84.44
24486;BME280;13449;49.374;8.584;2022-11-15T14:54:56;99611.69;;;13.47;85.65
24486;BME280;13449;49.374;8.584;2022-11-15T14:57:24;99614.88;;;13.44;84.42
24486;BME280;13449;49.374;8.584;2022-11-15T14:59:53;99610.22;;;13.45;84.49
24486;BME280;13449;49.374;8.584;2022-11-15T15:02:27;99603.53;;;13.41;84.83
24486;BME280;13449;49.374;8.584;2022-11-15T15:04:58;99599.34;;;13.38;84.40
24486;BME280;13449;49.374;8.584;2022-11-15T15:07:27;99592.66;;;13.34;84.40
24486;BME280;13449;49.374;8.584;2022-11-15T15:09:54;99578.41;;;13.26;85.06
24486;BME280;13449;49.374;8.584;2022-11-15T15:12:40;99572.75;;;13.21;85.49
24486;BME280;13449;49.374;8.584;2022-11-15T15:15:15;99571.31;;;13.18;85.06
24486;BME280;13449;49.374;8.584;2022-11-15T15:17:42;99580.38;;;13.19;84.58